Time;durP1;ratioP1;P1;durP2;ratioP2;P2;SDS_P1;SDS_P2;PMS_P1;PMS_P2;Temp;Humidity;BMP_temperature;BMP_pressure;BME280_temperature;BME280_humidity;BME280_pressure;Samples;Min_cycle;Max_cycle;Signal;HPM_P1;HPM_P2
2021/06/17 00:01:23;;;;;;;56.53;17.38;;;;;;;;;;5031046;28;20045;-76
2021/06/17 00:03:49;;;;;;;44.47;16.83;;;;;;;;;;5047449;28;20031;-76
2021/06/17 00:06:14;;;;;;;52.60;15.75;;;;;;;;;;5046013;28;20051;-75
2021/06/17 00:08:40;;;;;;;41.30;16.80;;;;;;;;;;5039830;28;20128;-77
2021/06/17 00:11:06;;;;;;;44.33;16.33;;;;;;;;;;5044280;28;20140;-75
2021/06/17 00:13:36;;;;;;;51.63;16.95;;;;;;;;;;5027359;28;20067;-76
2021/06/17 00:16:03;;;;;;;43.95;15.45;;;;;;;;;;5027421;28;20134;-72
2021/06/17 00:18:29;;;;;;;44.60;13.70;;;;;;;;;;5009850;28;20048;-74
2021/06/17 00:20:55;;;;;;;48.85;15.25;;;;;;;;;;5045562;28;20127;-76
2021/06/17 00:23:20;;;;;;;48.28;15.32;;;;;;;;;;5044681;28;20047;-77
2021/06/17 00:25:47;;;;;;;34.05;13.20;;;;;;;;;;5027336;28;20041;-76
2021/06/17 00:28:13;;;;;;;32.30;11.73;;;;;;;;;;5027885;28;20063;-74
2021/06/17 00:30:39;;;;;;;35.55;13.35;;;;;;;;;;5047386;28;20045;-78
2021/06/17 00:33:04;;;;;;;43.88;14.05;;;;;;;;;;5047002;28;20040;-78
2021/06/17 00:35:30;;;;;;;41.00;13.32;;;;;;;;;;5028145;28;20045;-68
2021/06/17 00:37:57;;;;;;;39.63;13.02;;;;;;;;;;5043842;28;20040;-73
2021/06/17 00:40:22;;;;;;;40.35;14.30;;;;;;;;;;5028268;28;20053;-73
2021/06/17 00:42:49;;;;;;;39.53;14.30;;;;;;;;;;5044645;28;20045;-74
2021/06/17 00:45:18;;;;;;;33.97;14.32;;;;;;;;;;5043690;28;20040;-72
2021/06/17 00:47:44;;;;;;;42.38;13.70;;;;;;;;;;5043835;28;20798;-76
2021/06/17 00:50:10;;;;;;;45.85;13.40;;;;;;;;;;5046425;28;20040;-76
2021/06/17 00:52:36;;;;;;;47.65;14.27;;;;;;;;;;5044755;28;20040;-70
2021/06/17 00:55:02;;;;;;;36.58;12.80;;;;;;;;;;5046080;28;20469;-77
2021/06/17 00:57:28;;;;;;;44.03;13.32;;;;;;;;;;5027512;28;20040;-73
2021/06/17 00:59:54;;;;;;;33.20;12.60;;;;;;;;;;5046385;28;20124;-71
2021/06/17 01:02:20;;;;;;;40.00;13.45;;;;;;;;;;5025785;28;20473;-70
2021/06/17 01:04:46;;;;;;;40.40;13.65;;;;;;;;;;5029068;28;20040;-75
2021/06/17 01:07:18;;;;;;;29.67;12.02;;;;;;;;;;5048892;28;20031;-74
2021/06/17 01:09:43;;;;;;;39.97;13.00;;;;;;;;;;5054723;28;20045;-73
2021/06/17 01:12:14;;;;;;;41.25;13.88;;;;;;;;;;5034910;28;20039;-73
2021/06/17 01:14:47;;;;;;;40.08;12.68;;;;;;;;;;5011102;28;20374;-74
2021/06/17 01:17:14;;;;;;;39.03;12.02;;;;;;;;;;5043890;28;20037;-72
2021/06/17 01:19:52;;;;;;;45.97;12.05;;;;;;;;;;5013153;28;20039;-76
2021/06/17 01:22:21;;;;;;;32.80;11.40;;;;;;;;;;5032200;28;20635;-74
2021/06/17 01:24:57;;;;;;;27.00;10.60;;;;;;;;;;5038976;28;20041;-74
2021/06/17 01:27:42;;;;;;;43.08;12.73;;;;;;;;;;5027711;28;20036;-75
2021/06/17 01:30:39;;;;;;;38.42;12.48;;;;;;;;;;5043737;28;20037;-76
2021/06/17 01:33:05;;;;;;;36.95;12.10;;;;;;;;;;5028086;28;20036;-76
2021/06/17 01:35:33;;;;;;;35.78;13.18;;;;;;;;;;5043559;28;20500;-73
2021/06/17 01:38:03;;;;;;;35.67;12.55;;;;;;;;;;5026808;28;20092;-74
2021/06/17 01:40:30;;;;;;;34.90;12.60;;;;;;;;;;5027218;28;20132;-78
2021/06/17 01:42:57;;;;;;;34.05;12.00;;;;;;;;;;5042511;28;20043;-73
2021/06/17 01:45:26;;;;;;;35.80;11.35;;;;;;;;;;5046066;28;20511;-77
2021/06/17 01:47:53;;;;;;;48.65;11.57;;;;;;;;;;5026627;28;20037;-77
2021/06/17 01:50:20;;;;;;;30.55;10.80;;;;;;;;;;5043775;28;20090;-72
2021/06/17 01:52:49;;;;;;;34.33;12.82;;;;;;;;;;5043336;28;20131;-75
2021/06/17 01:55:15;;;;;;;42.10;11.00;;;;;;;;;;5023125;28;20061;-78
2021/06/17 01:57:41;;;;;;;28.92;9.77;;;;;;;;;;5026420;28;20532;-80
2021/06/17 02:00:07;;;;;;;31.17;8.43;;;;;;;;;;5043139;28;20045;-75
2021/06/17 02:02:34;;;;;;;19.60;8.68;;;;;;;;;;5026383;28;20052;-74
2021/06/17 02:05:00;;;;;;;23.85;8.43;;;;;;;;;;5015068;28;20052;-75
2021/06/17 02:07:26;;;;;;;26.45;8.52;;;;;;;;;;5044109;28;20085;-75
2021/06/17 02:09:53;;;;;;;24.15;7.78;;;;;;;;;;5042637;28;20037;-76
2021/06/17 02:12:20;;;;;;;16.38;8.00;;;;;;;;;;5043994;28;20063;-76
2021/06/17 02:14:47;;;;;;;24.65;7.88;;;;;;;;;;5026146;28;20315;-74
2021/06/17 02:17:14;;;;;;;19.30;6.95;;;;;;;;;;5043188;28;20455;-73
2021/06/17 02:19:39;;;;;;;27.42;8.90;;;;;;;;;;5026756;28;20268;-74
2021/06/17 02:22:06;;;;;;;22.58;8.98;;;;;;;;;;5043818;28;20513;-74
2021/06/17 02:24:34;;;;;;;27.05;8.23;;;;;;;;;;5040806;28;20075;-72
2021/06/17 02:27:02;;;;;;;25.15;8.50;;;;;;;;;;5042871;28;20877;-71
2021/06/17 02:29:30;;;;;;;19.58;8.35;;;;;;;;;;5026649;28;20068;-71
2021/06/17 02:31:56;;;;;;;22.55;8.00;;;;;;;;;;5044865;28;20532;-72
2021/06/17 02:34:24;;;;;;;33.30;9.43;;;;;;;;;;5024563;28;20059;-71
2021/06/17 02:36:52;;;;;;;29.88;8.35;;;;;;;;;;5043929;28;20044;-74
2021/06/17 02:39:23;;;;;;;25.13;9.45;;;;;;;;;;5044246;28;20110;-74
2021/06/17 02:41:50;;;;;;;23.40;8.13;;;;;;;;;;5040561;28;20037;-73
2021/06/17 02:44:18;;;;;;;22.88;8.35;;;;;;;;;;5010260;28;20040;-72
2021/06/17 02:46:44;;;;;;;23.25;8.48;;;;;;;;;;5044601;28;20090;-72
2021/06/17 02:49:10;;;;;;;20.95;7.55;;;;;;;;;;5042669;28;20485;-73
2021/06/17 02:51:35;;;;;;;24.02;7.35;;;;;;;;;;5033697;28;20033;-73
2021/06/17 02:54:01;;;;;;;18.65;7.30;;;;;;;;;;5044212;28;20155;-72
2021/06/17 02:56:33;;;;;;;25.17;6.85;;;;;;;;;;5025960;28;20028;-73
2021/06/17 02:59:08;;;;;;;18.75;6.05;;;;;;;;;;5016635;28;20052;-73
2021/06/17 03:01:42;;;;;;;19.65;5.68;;;;;;;;;;5043322;28;20045;-78
2021/06/17 03:04:28;;;;;;;17.20;5.50;;;;;;;;;;5008726;28;20075;-70
2021/06/17 03:06:55;;;;;;;27.17;6.20;;;;;;;;;;4965958;28;20043;-73
2021/06/17 03:09:26;;;;;;;17.92;5.78;;;;;;;;;;4952787;28;20041;-72
2021/06/17 03:11:54;;;;;;;16.08;5.15;;;;;;;;;;4968714;28;20665;-72
2021/06/17 03:14:23;;;;;;;19.67;5.20;;;;;;;;;;4973990;28;20069;-71
2021/06/17 03:16:50;;;;;;;14.20;4.85;;;;;;;;;;4985650;28;20080;-74
2021/06/17 03:19:17;;;;;;;29.05;5.50;;;;;;;;;;4989292;28;20049;-72
2021/06/17 03:21:50;;;;;;;14.55;5.65;;;;;;;;;;4998257;28;20097;-73
2021/06/17 03:24:19;;;;;;;15.02;5.18;;;;;;;;;;4985449;28;20048;-72
2021/06/17 03:26:46;;;;;;;21.05;5.40;;;;;;;;;;4968637;28;20038;-72
2021/06/17 03:29:15;;;;;;;53.08;20.48;;;;;;;;;;4987755;28;20454;-72
2021/06/17 03:31:41;;;;;;;22.58;5.63;;;;;;;;;;5005133;28;20128;-73
2021/06/17 03:34:07;;;;;;;22.40;6.00;;;;;;;;;;5003719;28;20125;-72
2021/06/17 03:36:35;;;;;;;21.17;6.03;;;;;;;;;;4974980;28;20035;-72
2021/06/17 03:39:03;;;;;;;22.65;5.63;;;;;;;;;;4993930;28;20225;-72
2021/06/17 03:41:29;;;;;;;19.40;6.07;;;;;;;;;;4970548;28;20092;-71
2021/06/17 03:43:55;;;;;;;19.80;5.60;;;;;;;;;;5019780;28;20119;-72
2021/06/17 03:46:21;;;;;;;24.25;6.03;;;;;;;;;;5029600;28;20075;-72
2021/06/17 03:48:48;;;;;;;19.60;5.57;;;;;;;;;;5029875;28;20064;-71
2021/06/17 03:51:14;;;;;;;26.25;4.80;;;;;;;;;;5014834;28;20489;-72
2021/06/17 03:53:41;;;;;;;25.05;5.53;;;;;;;;;;5028999;28;20876;-72
2021/06/17 03:56:07;;;;;;;30.40;6.13;;;;;;;;;;5028912;28;20439;-71
2021/06/17 03:58:33;;;;;;;23.73;6.60;;;;;;;;;;5011903;28;20098;-73
2021/06/17 04:00:59;;;;;;;20.25;5.45;;;;;;;;;;5000120;28;20408;-72
2021/06/17 04:03:26;;;;;;;22.95;5.47;;;;;;;;;;5029764;28;20037;-71
2021/06/17 04:05:52;;;;;;;14.27;4.80;;;;;;;;;;5046362;28;20439;-71
2021/06/17 04:08:21;;;;;;;23.30;6.15;;;;;;;;;;5044222;28;20548;-70
2021/06/17 04:10:47;;;;;;;18.15;4.95;;;;;;;;;;5012574;28;20284;-71
2021/06/17 04:13:13;;;;;;;17.67;5.05;;;;;;;;;;5047426;28;20565;-75
2021/06/17 04:15:41;;;;;;;19.05;5.43;;;;;;;;;;4993707;28;20040;-73
2021/06/17 04:18:07;;;;;;;13.27;4.85;;;;;;;;;;5022376;28;20041;-74
2021/06/17 04:20:34;;;;;;;17.40;4.68;;;;;;;;;;5043810;28;20090;-73
2021/06/17 04:23:01;;;;;;;18.83;5.47;;;;;;;;;;5037315;28;20032;-73
2021/06/17 04:25:27;;;;;;;16.15;5.22;;;;;;;;;;5044595;28;20480;-74
2021/06/17 04:27:56;;;;;;;13.48;4.90;;;;;;;;;;5044998;28;20818;-73
2021/06/17 04:30:23;;;;;;;10.95;4.65;;;;;;;;;;5011741;28;20041;-73
2021/06/17 04:32:50;;;;;;;17.00;4.90;;;;;;;;;;5046655;28;20044;-70
2021/06/17 04:35:17;;;;;;;16.10;4.93;;;;;;;;;;5045340;28;20124;-77
2021/06/17 04:37:43;;;;;;;11.98;5.00;;;;;;;;;;5045562;28;20119;-76
2021/06/17 04:40:09;;;;;;;15.13;4.75;;;;;;;;;;5029994;28;20079;-75
2021/06/17 04:42:35;;;;;;;16.92;5.13;;;;;;;;;;5027104;28;20052;-75
2021/06/17 04:45:01;;;;;;;19.75;5.07;;;;;;;;;;5028767;28;20033;-73
2021/06/17 04:47:30;;;;;;;23.05;4.65;;;;;;;;;;5041842;28;20051;-76
2021/06/17 04:49:56;;;;;;;16.65;5.03;;;;;;;;;;5028828;28;20699;-70
2021/06/17 04:52:42;;;;;;;15.05;4.85;;;;;;;;;;5038671;28;20513;-74
2021/06/17 04:55:08;;;;;;;19.67;4.72;;;;;;;;;;5033112;28;20037;-75
2021/06/17 04:57:36;;;;;;;20.48;4.60;;;;;;;;;;5043590;28;20049;-70
2021/06/17 05:00:03;;;;;;;23.63;4.80;;;;;;;;;;5008888;28;20040;-76
2021/06/17 05:02:30;;;;;;;14.07;4.68;;;;;;;;;;5029677;28;20036;-80
2021/06/17 05:04:55;;;;;;;11.93;5.38;;;;;;;;;;5034047;28;20175;-72
2021/06/17 05:07:27;;;;;;;17.73;4.65;;;;;;;;;;5045106;28;20655;-81
2021/06/17 05:12:37;;;;;;;18.10;5.53;;;;;;;;;;5037712;28;20041;-74
2021/06/17 05:15:04;;;;;;;18.00;5.78;;;;;;;;;;5045055;28;20052;-74
2021/06/17 05:17:30;;;;;;;17.98;4.63;;;;;;;;;;5032205;28;20344;-76
2021/06/17 05:19:56;;;;;;;25.08;4.90;;;;;;;;;;5044857;28;20041;-72
2021/06/17 05:22:21;;;;;;;19.27;4.80;;;;;;;;;;5043648;28;20040;-76
2021/06/17 05:24:47;;;;;;;16.48;3.83;;;;;;;;;;5046010;28;20040;-76
2021/06/17 05:27:14;;;;;;;9.82;2.75;;;;;;;;;;5035824;28;20044;-79
2021/06/17 05:29:39;;;;;;;12.57;3.17;;;;;;;;;;5043181;28;20041;-77
2021/06/17 05:35:50;;;;;;;3.72;2.00;;;;;;;;;;5040864;28;20054;-78
2021/06/17 05:38:19;;;;;;;4.13;1.40;;;;;;;;;;5036054;28;20044;-76
2021/06/17 05:40:45;;;;;;;7.57;1.95;;;;;;;;;;5009449;28;20064;-76
2021/06/17 05:43:11;;;;;;;3.58;1.50;;;;;;;;;;5018521;28;20414;-74
2021/06/17 05:45:38;;;;;;;13.38;2.10;;;;;;;;;;5033694;28;20037;-71
2021/06/17 05:48:04;;;;;;;14.40;2.97;;;;;;;;;;5011359;28;20080;-74
2021/06/17 05:50:29;;;;;;;15.32;3.00;;;;;;;;;;5044254;28;20075;-76
2021/06/17 05:52:55;;;;;;;11.57;1.50;;;;;;;;;;5044144;28;20036;-78
2021/06/17 05:55:21;;;;;;;7.30;1.60;;;;;;;;;;5024772;28;20041;-78
2021/06/17 05:57:46;;;;;;;8.63;2.30;;;;;;;;;;5009874;28;20041;-77
2021/06/17 06:00:12;;;;;;;13.27;2.22;;;;;;;;;;5043595;28;20080;-76
2021/06/17 06:02:38;;;;;;;9.07;1.90;;;;;;;;;;5010223;28;20116;-72
2021/06/17 06:05:04;;;;;;;6.13;1.80;;;;;;;;;;5010056;28;20488;-76
2021/06/17 06:07:30;;;;;;;8.70;1.67;;;;;;;;;;5027303;28;20036;-72
2021/06/17 06:09:56;;;;;;;13.45;2.20;;;;;;;;;;5036662;28;20045;-72
2021/06/17 06:12:24;;;;;;;6.78;1.90;;;;;;;;;;5041246;28;20056;-65
2021/06/17 06:14:52;;;;;;;9.07;2.50;;;;;;;;;;5026077;28;20152;-69
2021/06/17 06:17:19;;;;;;;11.57;2.15;;;;;;;;;;5028915;28;20044;-69
2021/06/17 06:19:45;;;;;;;10.95;1.83;;;;;;;;;;5006105;28;20038;-68
2021/06/17 06:22:10;;;;;;;7.10;1.75;;;;;;;;;;5014744;28;20033;-71
2021/06/17 06:24:37;;;;;;;7.93;1.85;;;;;;;;;;5041135;28;20110;-73
2021/06/17 06:27:06;;;;;;;5.57;1.20;;;;;;;;;;5015518;28;20090;-73
2021/06/17 06:29:35;;;;;;;4.95;1.63;;;;;;;;;;5025223;28;20041;-71
2021/06/17 06:32:02;;;;;;;19.00;1.90;;;;;;;;;;5026676;28;20481;-72
2021/06/17 06:34:28;;;;;;;10.52;1.20;;;;;;;;;;5027577;28;20423;-69
2021/06/17 06:36:54;;;;;;;5.22;1.30;;;;;;;;;;5026824;28;20060;-68
2021/06/17 06:39:20;;;;;;;6.72;1.30;;;;;;;;;;5029125;28;20045;-71
2021/06/17 06:41:46;;;;;;;3.88;1.60;;;;;;;;;;5026451;28;20040;-67
2021/06/17 06:44:13;;;;;;;5.25;1.38;;;;;;;;;;5026519;28;20059;-68
2021/06/17 06:46:39;;;;;;;4.28;1.30;;;;;;;;;;5042019;28;20029;-74
2021/06/17 06:49:05;;;;;;;5.63;2.03;;;;;;;;;;5001174;28;20629;-75
2021/06/17 06:51:31;;;;;;;7.60;1.58;;;;;;;;;;5018383;28;20362;-70
2021/06/17 06:53:58;;;;;;;14.88;3.03;;;;;;;;;;5023664;28;20140;-67
2021/06/17 06:56:23;;;;;;;5.45;1.40;;;;;;;;;;5035843;28;20152;-69
2021/06/17 06:58:49;;;;;;;7.93;0.95;;;;;;;;;;5034262;28;20123;-68
2021/06/17 07:01:15;;;;;;;6.00;1.58;;;;;;;;;;5016571;28;20064;-71
2021/06/17 07:03:42;;;;;;;1.98;0.93;;;;;;;;;;5028122;28;20033;-70
2021/06/17 07:06:08;;;;;;;13.57;1.33;;;;;;;;;;5018305;28;20305;-71
2021/06/17 07:08:36;;;;;;;5.68;1.42;;;;;;;;;;5030779;28;20049;-66
2021/06/17 07:11:02;;;;;;;2.13;1.17;;;;;;;;;;5042298;28;20047;-84
2021/06/17 07:13:29;;;;;;;5.25;1.38;;;;;;;;;;5026084;28;20093;-83
2021/06/17 07:15:55;;;;;;;20.95;2.25;;;;;;;;;;5048228;28;20171;-77
2021/06/17 07:18:21;;;;;;;3.83;1.08;;;;;;;;;;5038958;28;20055;-78
2021/06/17 07:20:46;;;;;;;3.72;1.25;;;;;;;;;;5033781;28;20033;-70
2021/06/17 07:23:14;;;;;;;8.90;1.40;;;;;;;;;;5016651;28;20064;-73
2021/06/17 07:25:41;;;;;;;6.00;1.15;;;;;;;;;;5025327;28;20036;-73
2021/06/17 07:28:07;;;;;;;12.57;1.17;;;;;;;;;;5034204;28;20045;-76
2021/06/17 07:30:33;;;;;;;4.85;1.00;;;;;;;;;;5015547;28;20051;-76
2021/06/17 07:32:59;;;;;;;3.47;1.15;;;;;;;;;;5048762;28;20033;-76
2021/06/17 07:35:25;;;;;;;3.65;1.02;;;;;;;;;;5015399;28;20064;-77
2021/06/17 07:37:51;;;;;;;1.77;0.90;;;;;;;;;;5020345;28;20049;-79
2021/06/17 07:40:20;;;;;;;4.75;1.10;;;;;;;;;;5024190;28;20034;-73
2021/06/17 07:42:47;;;;;;;2.40;1.10;;;;;;;;;;5015720;28;20047;-74
2021/06/17 07:45:14;;;;;;;4.32;1.48;;;;;;;;;;5015754;28;20033;-72
2021/06/17 07:47:40;;;;;;;8.00;1.52;;;;;;;;;;5015710;28;20048;-72
2021/06/17 07:50:10;;;;;;;5.68;1.50;;;;;;;;;;5034312;28;20044;-75
2021/06/17 07:52:36;;;;;;;5.32;1.20;;;;;;;;;;5020992;28;20041;-71
2021/06/17 07:55:03;;;;;;;2.15;1.00;;;;;;;;;;5034123;28;20212;-71
2021/06/17 07:57:29;;;;;;;7.97;1.00;;;;;;;;;;5015407;28;20104;-72
2021/06/17 07:59:55;;;;;;;10.15;1.30;;;;;;;;;;5035044;28;20090;-72
2021/06/17 08:02:21;;;;;;;4.43;1.30;;;;;;;;;;5015956;28;20045;-72
2021/06/17 08:04:49;;;;;;;5.18;1.40;;;;;;;;;;5004588;28;20123;-72
2021/06/17 08:07:18;;;;;;;10.68;1.20;;;;;;;;;;5005855;28;20033;-72
2021/06/17 08:09:44;;;;;;;4.93;1.60;;;;;;;;;;5040497;28;20037;-72
2021/06/17 08:12:09;;;;;;;4.70;1.58;;;;;;;;;;5036561;28;20044;-73
2021/06/17 08:14:35;;;;;;;5.93;1.25;;;;;;;;;;5036109;28;20057;-73
2021/06/17 08:17:01;;;;;;;2.22;0.95;;;;;;;;;;5037905;28;20064;-71
2021/06/17 08:19:31;;;;;;;6.03;1.45;;;;;;;;;;5021735;28;20522;-72
2021/06/17 08:21:58;;;;;;;10.77;1.45;;;;;;;;;;5019432;28;20036;-72
2021/06/17 08:24:24;;;;;;;2.22;1.10;;;;;;;;;;5020618;28;20127;-72
2021/06/17 08:26:50;;;;;;;7.13;1.20;;;;;;;;;;5018799;28;20064;-73
2021/06/17 08:29:16;;;;;;;7.00;1.30;;;;;;;;;;4986835;28;20507;-73
2021/06/17 08:31:43;;;;;;;8.30;1.30;;;;;;;;;;5039393;28;20029;-72
2021/06/17 08:34:09;;;;;;;3.80;1.38;;;;;;;;;;5038515;28;20045;-71
2021/06/17 08:36:35;;;;;;;6.18;1.40;;;;;;;;;;5036347;28;20470;-73
2021/06/17 08:39:00;;;;;;;1.73;0.90;;;;;;;;;;5016317;28;20048;-74
2021/06/17 08:41:26;;;;;;;4.22;1.00;;;;;;;;;;4988890;28;20028;-76
2021/06/17 08:43:52;;;;;;;8.38;1.27;;;;;;;;;;5038671;28;20033;-78
2021/06/17 08:46:19;;;;;;;7.85;1.30;;;;;;;;;;5033230;28;20116;-74
2021/06/17 08:48:45;;;;;;;5.40;1.40;;;;;;;;;;5018977;28;20029;-78
2021/06/17 08:51:12;;;;;;;5.60;1.20;;;;;;;;;;5037231;28;20044;-78
2021/06/17 08:53:37;;;;;;;3.63;1.27;;;;;;;;;;5036677;28;20053;-78
2021/06/17 08:56:07;;;;;;;4.72;1.15;;;;;;;;;;5039240;28;20025;-75
2021/06/17 08:58:35;;;;;;;8.52;1.35;;;;;;;;;;5022495;28;20179;-77
2021/06/17 09:01:08;;;;;;;7.20;1.60;;;;;;;;;;5033926;28;20454;-74
2021/06/17 09:03:37;;;;;;;12.15;2.05;;;;;;;;;;5037006;28;20045;-76
2021/06/17 09:06:03;;;;;;;8.38;1.90;;;;;;;;;;5019464;28;20182;-77
2021/06/17 09:08:33;;;;;;;8.40;1.45;;;;;;;;;;5019968;28;20033;-78
2021/06/17 09:10:59;;;;;;;8.83;1.70;;;;;;;;;;5024650;28;20453;-78
2021/06/17 09:13:33;;;;;;;7.45;2.03;;;;;;;;;;5006549;28;20029;-80
2021/06/17 09:16:00;;;;;;;10.73;1.77;;;;;;;;;;5035498;28;20515;-79
2021/06/17 09:18:32;;;;;;;12.18;1.73;;;;;;;;;;5034018;28;20099;-79
2021/06/17 09:20:58;;;;;;;15.18;1.92;;;;;;;;;;4984700;28;20748;-78
2021/06/17 09:23:30;;;;;;;9.52;1.60;;;;;;;;;;5036482;28;20037;-79
2021/06/17 09:25:59;;;;;;;4.70;1.52;;;;;;;;;;5026071;28;20043;-69
2021/06/17 09:28:43;;;;;;;12.25;1.80;;;;;;;;;;5039615;28;20114;-78
2021/06/17 09:31:20;;;;;;;5.18;1.50;;;;;;;;;;5011544;28;20033;-70
2021/06/17 09:33:47;;;;;;;8.60;1.40;;;;;;;;;;5036009;28;20030;-75
2021/06/17 09:36:13;;;;;;;8.20;1.70;;;;;;;;;;5001083;28;20036;-71
2021/06/17 09:38:44;;;;;;;9.65;2.72;;;;;;;;;;5027213;28;20041;-71
2021/06/17 09:41:10;;;;;;;9.98;1.80;;;;;;;;;;5023217;28;20123;-75
2021/06/17 09:43:42;;;;;;;11.18;1.60;;;;;;;;;;5036871;28;20122;-73
2021/06/17 09:46:10;;;;;;;14.25;1.80;;;;;;;;;;5017989;28;20037;-70
2021/06/17 09:48:37;;;;;;;7.97;1.70;;;;;;;;;;5035647;28;20071;-72
2021/06/17 09:51:22;;;;;;;10.05;1.90;;;;;;;;;;5020361;28;20133;-74
2021/06/17 09:53:48;;;;;;;4.85;1.70;;;;;;;;;;5016468;28;20061;-71
2021/06/17 09:56:15;;;;;;;8.88;1.50;;;;;;;;;;5035928;28;20094;-75
2021/06/17 09:58:47;;;;;;;7.47;1.58;;;;;;;;;;5031219;28;20033;-77
2021/06/17 10:01:16;;;;;;;8.18;1.80;;;;;;;;;;5005318;28;20034;-72
2021/06/17 10:03:58;;;;;;;4.68;1.50;;;;;;;;;;5018403;28;20033;-77
2021/06/17 10:06:24;;;;;;;10.50;1.80;;;;;;;;;;5038214;28;20042;-77
2021/06/17 10:08:51;;;;;;;4.15;1.30;;;;;;;;;;5030728;28;20076;-71
2021/06/17 10:11:17;;;;;;;8.80;1.52;;;;;;;;;;5039752;28;20037;-76
2021/06/17 10:13:43;;;;;;;5.40;1.50;;;;;;;;;;5027575;28;20052;-75
2021/06/17 10:16:09;;;;;;;6.43;1.58;;;;;;;;;;5015946;28;20502;-75
2021/06/17 10:18:37;;;;;;;4.90;1.80;;;;;;;;;;5032639;28;20041;-78
2021/06/17 10:21:03;;;;;;;3.97;1.48;;;;;;;;;;5034007;28;20188;-76
2021/06/17 10:23:28;;;;;;;5.07;1.52;;;;;;;;;;5010311;28;20060;-81
2021/06/17 10:25:54;;;;;;;7.53;1.80;;;;;;;;;;5046341;28;20056;-74
2021/06/17 10:28:43;;;;;;;10.65;1.58;;;;;;;;;;5026751;28;20488;-75
2021/06/17 10:31:09;;;;;;;11.45;1.80;;;;;;;;;;5041672;28;20040;-78
2021/06/17 10:33:37;;;;;;;8.65;1.58;;;;;;;;;;5041973;28;20045;-69
2021/06/17 10:36:22;;;;;;;8.40;1.67;;;;;;;;;;5037975;28;20072;-79
2021/06/17 10:39:14;;;;;;;11.02;1.63;;;;;;;;;;5017729;28;20051;-73
2021/06/17 10:42:06;;;;;;;8.25;1.75;;;;;;;;;;5040662;28;20043;-74
2021/06/17 10:44:43;;;;;;;10.35;1.95;;;;;;;;;;5042712;28;20080;-72
2021/06/17 10:47:08;;;;;;;8.10;1.80;;;;;;;;;;5027553;28;20451;-73
2021/06/17 10:49:50;;;;;;;9.40;1.50;;;;;;;;;;5026372;28;20040;-71
2021/06/17 10:52:25;;;;;;;12.57;1.63;;;;;;;;;;5040274;28;20041;-73
2021/06/17 10:54:58;;;;;;;8.38;1.65;;;;;;;;;;5034925;28;20120;-76
2021/06/17 10:57:51;;;;;;;7.80;1.50;;;;;;;;;;5019814;28;20132;-76
2021/06/17 11:00:29;;;;;;;5.47;1.90;;;;;;;;;;5002425;28;20033;-77
2021/06/17 11:02:57;;;;;;;19.10;1.83;;;;;;;;;;5030412;28;20032;-75
2021/06/17 11:05:29;;;;;;;6.78;1.40;;;;;;;;;;5015874;28;20392;-77
2021/06/17 11:08:16;;;;;;;8.02;1.63;;;;;;;;;;5033586;28;20052;-73
2021/06/17 11:10:46;;;;;;;22.08;2.55;;;;;;;;;;5034945;28;20029;-75
2021/06/17 11:13:35;;;;;;;9.15;1.95;;;;;;;;;;5007220;28;20036;-75
2021/06/17 11:16:03;;;;;;;18.20;2.20;;;;;;;;;;5005707;28;20103;-73
2021/06/17 11:18:41;;;;;;;11.68;1.52;;;;;;;;;;5032953;28;20044;-76
2021/06/17 11:21:22;;;;;;;11.20;1.67;;;;;;;;;;5019264;28;20033;-74
2021/06/17 11:23:49;;;;;;;15.48;1.90;;;;;;;;;;5032700;28;20037;-75
2021/06/17 11:26:34;;;;;;;9.80;1.90;;;;;;;;;;5023663;28;20106;-77
2021/06/17 11:28:59;;;;;;;7.57;1.42;;;;;;;;;;5035622;28;20044;-77
2021/06/17 11:31:51;;;;;;;6.50;1.70;;;;;;;;;;5034363;28;20029;-75
2021/06/17 11:34:30;;;;;;;8.95;1.50;;;;;;;;;;5013767;28;20065;-74
2021/06/17 11:36:56;;;;;;;8.30;1.65;;;;;;;;;;5041594;28;20033;-73
2021/06/17 11:39:23;;;;;;;8.13;1.77;;;;;;;;;;5044741;28;20053;-70
2021/06/17 11:41:49;;;;;;;5.53;1.35;;;;;;;;;;5044478;28;20039;-70
2021/06/17 11:44:23;;;;;;;17.88;1.63;;;;;;;;;;5047279;28;20037;-69
2021/06/17 11:46:51;;;;;;;13.82;1.80;;;;;;;;;;5046760;28;20060;-74
2021/06/17 11:49:17;;;;;;;9.13;2.25;;;;;;;;;;5036028;28;20045;-71
2021/06/17 11:51:53;;;;;;;13.07;1.85;;;;;;;;;;5041662;28;20489;-74
2021/06/17 11:54:20;;;;;;;10.85;1.90;;;;;;;;;;5038911;28;20033;-74
2021/06/17 11:56:56;;;;;;;8.13;1.88;;;;;;;;;;5028204;28;20040;-70
2021/06/17 11:59:25;;;;;;;5.28;1.58;;;;;;;;;;5038972;28;20062;-73
2021/06/17 12:02:00;;;;;;;9.02;1.70;;;;;;;;;;5041545;28;20029;-74
2021/06/17 12:04:44;;;;;;;9.60;2.00;;;;;;;;;;5023199;28;20064;-72
2021/06/17 12:07:11;;;;;;;10.07;2.17;;;;;;;;;;5005796;28;20103;-71
2021/06/17 12:09:38;;;;;;;3.13;1.52;;;;;;;;;;5018175;28;20071;-71
2021/06/17 12:12:14;;;;;;;8.57;1.60;;;;;;;;;;5009288;28;20041;-71
2021/06/17 12:14:40;;;;;;;12.63;1.95;;;;;;;;;;5004523;28;20064;-72
2021/06/17 12:17:06;;;;;;;13.40;1.75;;;;;;;;;;5031081;28;20033;-72
2021/06/17 12:19:31;;;;;;;7.60;2.10;;;;;;;;;;5018790;28;20048;-70
2021/06/17 12:22:03;;;;;;;11.32;2.42;;;;;;;;;;5019907;28;20132;-71
2021/06/17 12:24:29;;;;;;;9.88;2.00;;;;;;;;;;5035351;28;20068;-71
2021/06/17 12:26:55;;;;;;;7.38;1.80;;;;;;;;;;5037397;28;20275;-70
2021/06/17 12:29:24;;;;;;;8.07;1.73;;;;;;;;;;5029447;28;20037;-73
2021/06/17 12:31:54;;;;;;;9.68;1.83;;;;;;;;;;5037981;28;20574;-74
2021/06/17 12:34:20;;;;;;;10.63;1.83;;;;;;;;;;5009736;28;20033;-75
2021/06/17 12:36:59;;;;;;;7.03;2.22;;;;;;;;;;5038805;28;20064;-71
2021/06/17 12:39:25;;;;;;;7.57;1.85;;;;;;;;;;5019061;28;20033;-73
2021/06/17 12:41:51;;;;;;;6.45;1.90;;;;;;;;;;5040500;28;20790;-70
2021/06/17 12:44:35;;;;;;;8.73;1.50;;;;;;;;;;5020384;28;20041;-71
2021/06/17 12:47:04;;;;;;;10.13;1.77;;;;;;;;;;5039248;28;20032;-74
2021/06/17 12:52:24;;;;;;;11.00;1.95;;;;;;;;;;5034408;28;20042;-73
2021/06/17 12:54:53;;;;;;;5.60;1.60;;;;;;;;;;5002199;28;20044;-73
2021/06/17 12:57:20;;;;;;;6.15;1.58;;;;;;;;;;5040366;28;20035;-74
2021/06/17 13:00:04;;;;;;;4.22;1.70;;;;;;;;;;5035280;28;20029;-74
2021/06/17 13:02:29;;;;;;;8.85;1.90;;;;;;;;;;5027229;28;20417;-74
2021/06/17 13:05:04;;;;;;;13.05;2.05;;;;;;;;;;5021779;28;20036;-73
2021/06/17 13:07:31;;;;;;;4.65;1.60;;;;;;;;;;5015275;28;20421;-74
2021/06/17 13:10:12;;;;;;;17.50;1.83;;;;;;;;;;5024034;28;20477;-71
2021/06/17 13:12:38;;;;;;;11.00;3.37;;;;;;;;;;5033165;28;20037;-70
2021/06/17 13:15:04;;;;;;;5.35;1.80;;;;;;;;;;5035755;28;20322;-73
2021/06/17 13:17:30;;;;;;;20.23;1.92;;;;;;;;;;5029910;28;20052;-73
2021/06/17 13:19:58;;;;;;;12.93;1.80;;;;;;;;;;5039236;28;20202;-71
2021/06/17 13:22:24;;;;;;;11.35;1.90;;;;;;;;;;5032358;28;20710;-73
2021/06/17 13:24:50;;;;;;;3.67;1.83;;;;;;;;;;5024601;28;20036;-76
2021/06/17 13:27:17;;;;;;;7.68;2.05;;;;;;;;;;5045646;28;20346;-74
2021/06/17 13:29:49;;;;;;;9.07;1.88;;;;;;;;;;5040963;28;20077;-70
2021/06/17 13:32:16;;;;;;;6.72;1.88;;;;;;;;;;5044173;28;20106;-71
2021/06/17 13:34:41;;;;;;;8.02;1.80;;;;;;;;;;5032017;28;20055;-71
2021/06/17 13:37:07;;;;;;;7.95;2.05;;;;;;;;;;5032609;28;20036;-69
2021/06/17 13:39:33;;;;;;;8.18;1.55;;;;;;;;;;5030257;28;20033;-73
2021/06/17 13:41:59;;;;;;;15.18;1.92;;;;;;;;;;5003044;28;20067;-74
2021/06/17 13:44:24;;;;;;;5.32;1.70;;;;;;;;;;4999552;28;20033;-73
2021/06/17 13:46:50;;;;;;;7.75;1.80;;;;;;;;;;5014938;28;20038;-73
2021/06/17 13:49:16;;;;;;;16.38;2.05;;;;;;;;;;5017157;28;20076;-71
2021/06/17 13:51:42;;;;;;;11.25;1.75;;;;;;;;;;5019403;28;20128;-71
2021/06/17 13:54:07;;;;;;;5.00;1.90;;;;;;;;;;5033986;28;20366;-73
2021/06/17 13:56:33;;;;;;;6.10;1.73;;;;;;;;;;5037626;28;20450;-74
2021/06/17 13:58:59;;;;;;;8.65;1.92;;;;;;;;;;5037948;28;20037;-74
2021/06/17 14:01:24;;;;;;;4.88;2.00;;;;;;;;;;5044459;28;20045;-73
2021/06/17 14:03:50;;;;;;;6.20;1.75;;;;;;;;;;5033982;28;20531;-70
2021/06/17 14:06:16;;;;;;;7.63;1.75;;;;;;;;;;5037239;28;20030;-71
2021/06/17 14:08:43;;;;;;;14.75;1.65;;;;;;;;;;5031463;28;20041;-72
2021/06/17 14:11:08;;;;;;;4.15;1.50;;;;;;;;;;5037016;28;20033;-73
2021/06/17 14:13:34;;;;;;;10.90;2.30;;;;;;;;;;4999598;28;20532;-72
2021/06/17 14:16:00;;;;;;;6.72;1.65;;;;;;;;;;5024226;28;20041;-72
2021/06/17 14:18:25;;;;;;;9.02;2.00;;;;;;;;;;5035869;28;20037;-74
2021/06/17 14:20:51;;;;;;;8.25;2.00;;;;;;;;;;5016848;28;20025;-73
2021/06/17 14:23:17;;;;;;;8.13;1.98;;;;;;;;;;5019014;28;20825;-70
2021/06/17 14:25:43;;;;;;;22.48;2.72;;;;;;;;;;5036751;28;20037;-71
2021/06/17 14:28:09;;;;;;;9.10;1.85;;;;;;;;;;5028241;28;20049;-75
2021/06/17 14:30:35;;;;;;;8.45;1.75;;;;;;;;;;5026031;28;20625;-69
2021/06/17 14:33:14;;;;;;;12.98;2.00;;;;;;;;;;5019615;28;20123;-73
2021/06/17 14:35:41;;;;;;;9.07;2.83;;;;;;;;;;5037315;28;20124;-75
2021/06/17 14:38:07;;;;;;;11.77;2.30;;;;;;;;;;5034953;28;20588;-77
2021/06/17 14:40:34;;;;;;;9.07;1.90;;;;;;;;;;5020307;28;20083;-71
2021/06/17 14:43:00;;;;;;;12.88;1.98;;;;;;;;;;5027419;28;20440;-69
2021/06/17 14:45:25;;;;;;;8.90;1.75;;;;;;;;;;4995299;28;20071;-65
2021/06/17 14:47:51;;;;;;;8.73;2.15;;;;;;;;;;4998961;28;20040;-75
2021/06/17 14:50:17;;;;;;;6.80;1.70;;;;;;;;;;5030634;28;20037;-70